NQY weather

Newquay Cornwall Airport
Newquay, England, United Kingdom

Public forecast

Using degrees Celsius for public forecast. Weather courtesy of forecast.io.

Current aviation weather report (METAR) for Newquay Cornwall Airport

Retrieved 2020/02/17 17:20 UTC (38 minutes ago):

EGHQ 171720Z 27020KT 9999 VCSH SCT030CB 07/03 Q1017

Closest aviation forecast (TAF) to Newquay Cornwall Airport

Forecast is more than 12 hours old.

Closest forecast is RNAS Culdrose, 23.5 nm (43.5 km) SSW. Retrieved 2016/10/07 12:45 UTC (3 years ago):

TAF TAF EGDR 071134Z 0712/0724 11015KT 9999 SCT025 PROB30 TEMPO 0712/0715 7000 -SHRA FEW012 BKN020 BECMG 0721/0723 9999 BKN022